Time;durP1;ratioP1;P1;durP2;ratioP2;P2;SDS_P1;SDS_P2;PMS_P1;PMS_P2;Temp;Humidity;BMP_temperature;BMP_pressure;BME280_temperature;BME280_humidity;BME280_pressure;Samples;Min_cycle;Max_cycle;Signal;HPM_P1;HPM_P2
2021/10/24 00:01:22;;;;;;;58.88;3.72;;;2.80;1.00;;;;;;5072856;28;20209;-62
2021/10/24 00:03:49;;;;;;;58.70;3.17;;;2.80;1.00;;;;;;5073092;28;20205;-64
2021/10/24 00:06:15;;;;;;;58.88;3.50;;;2.80;1.00;;;;;;5072696;28;20304;-63
2021/10/24 00:08:42;;;;;;;58.65;3.03;;;2.70;1.00;;;;;;5072881;28;20207;-62
2021/10/24 00:11:09;;;;;;;58.65;3.78;;;2.70;1.00;;;;;;5072828;28;20209;-63
2021/10/24 00:13:36;;;;;;;58.70;3.17;;;2.70;1.00;;;;;;5072495;28;20255;-63
2021/10/24 00:16:04;;;;;;;58.67;3.03;;;2.70;1.00;;;;;;5072140;28;20295;-63
2021/10/24 00:18:32;;;;;;;58.67;3.75;;;2.70;1.00;;;;;;5072773;28;20296;-62
2021/10/24 00:20:59;;;;;;;58.65;3.13;;;2.70;1.00;;;;;;5072725;28;20477;-61
2021/10/24 00:23:26;;;;;;;58.80;3.40;;;2.70;1.00;;;;;;5072471;28;20212;-62
2021/10/24 00:25:53;;;;;;;58.60;2.95;;;2.70;1.00;;;;;;5072530;28;20201;-62
2021/10/24 00:28:20;;;;;;;58.78;3.20;;;2.60;1.00;;;;;;5072477;28;20216;-62
2021/10/24 00:30:47;;;;;;;58.38;3.20;;;2.60;1.00;;;;;;5072552;28;20257;-62
2021/10/24 00:33:13;;;;;;;58.55;3.20;;;2.50;1.00;;;;;;5072529;28;20669;-62
2021/10/24 00:35:42;;;;;;;58.78;3.10;;;2.50;1.00;;;;;;5072082;28;20228;-62
2021/10/24 00:38:08;;;;;;;58.72;3.72;;;2.50;1.00;;;;;;5072495;28;20201;-62
2021/10/24 00:40:35;;;;;;;58.47;2.90;;;2.60;1.00;;;;;;5072534;28;20351;-61
2021/10/24 00:43:02;;;;;;;59.00;3.83;;;2.50;1.00;;;;;;5072053;28;20209;-62
2021/10/24 00:45:30;;;;;;;58.70;3.10;;;2.40;1.00;;;;;;5071762;28;20292;-63
2021/10/24 00:47:57;;;;;;;58.75;3.20;;;2.40;1.00;;;;;;5072044;28;20207;-62
2021/10/24 00:50:24;;;;;;;58.67;3.20;;;2.40;1.00;;;;;;5072102;28;20229;-63
2021/10/24 00:52:53;;;;;;;58.30;2.90;;;2.40;1.00;;;;;;5072094;28;20577;-63
2021/10/24 00:55:22;;;;;;;58.92;3.53;;;2.30;1.00;;;;;;5071668;28;20757;-64
2021/10/24 00:57:49;;;;;;;58.70;3.05;;;2.30;1.00;;;;;;5072132;28;20209;-61
2021/10/24 01:00:16;;;;;;;58.70;3.35;;;2.30;1.00;;;;;;5071364;28;20257;-64
2021/10/24 01:02:44;;;;;;;58.58;3.20;;;2.30;1.00;;;;;;5071984;28;20215;-63
2021/10/24 01:05:13;;;;;;;58.47;3.00;;;2.30;1.00;;;;;;5071776;28;20205;-64
2021/10/24 01:07:42;;;;;;;59.47;4.00;;;2.20;1.00;;;;;;5071605;28;20205;-62
2021/10/24 01:10:15;;;;;;;58.58;3.50;;;2.20;1.00;;;;;;5071631;28;20308;-62
2021/10/24 01:12:44;;;;;;;58.65;3.08;;;2.10;1.00;;;;;;5071891;28;20208;-63
2021/10/24 01:15:11;;;;;;;58.75;3.30;;;2.20;1.00;;;;;;5071642;28;20231;-63
2021/10/24 01:17:38;;;;;;;58.95;3.38;;;2.20;1.00;;;;;;5071446;28;20205;-63
2021/10/24 01:20:06;;;;;;;58.40;3.20;;;2.10;1.00;;;;;;5071775;28;20229;-63
2021/10/24 01:22:37;;;;;;;58.67;3.00;;;2.10;1.00;;;;;;5071753;28;20215;-63
2021/10/24 01:25:06;;;;;;;58.78;3.20;;;2.10;1.00;;;;;;5071834;28;20295;-63
2021/10/24 01:27:34;;;;;;;58.85;3.38;;;2.10;1.00;;;;;;5071708;28;20205;-63
2021/10/24 01:30:02;;;;;;;58.90;3.63;;;2.10;1.00;;;;;;5071773;28;20229;-63
2021/10/24 01:32:29;;;;;;;58.72;4.05;;;2.10;1.00;;;;;;5070221;28;20208;-63
2021/10/24 01:34:58;;;;;;;58.90;3.90;;;2.00;1.00;;;;;;5071898;28;20231;-63
2021/10/24 01:37:32;;;;;;;58.67;2.92;;;2.00;1.00;;;;;;5071478;28;20205;-64
2021/10/24 01:40:01;;;;;;;58.67;3.13;;;2.00;1.00;;;;;;5071663;28;20234;-64
2021/10/24 01:42:28;;;;;;;58.90;3.67;;;1.90;1.00;;;;;;5071505;28;20295;-64
2021/10/24 01:44:54;;;;;;;58.13;3.20;;;1.90;1.00;;;;;;5071394;28;20204;-64
2021/10/24 01:47:21;;;;;;;58.90;3.03;;;1.90;1.00;;;;;;5071193;28;20201;-62
2021/10/24 01:49:48;;;;;;;58.53;3.88;;;1.90;1.00;;;;;;5071513;28;20229;-64
2021/10/24 01:52:16;;;;;;;58.40;3.45;;;1.80;1.00;;;;;;5071482;28;20208;-63
2021/10/24 01:54:43;;;;;;;58.30;3.30;;;1.80;1.00;;;;;;5071404;28;20595;-62
2021/10/24 01:57:11;;;;;;;58.50;3.45;;;1.70;1.00;;;;;;5071055;28;20296;-63
2021/10/24 01:59:38;;;;;;;58.47;3.00;;;1.70;1.00;;;;;;5071238;28;20224;-64
2021/10/24 02:02:05;;;;;;;58.67;3.38;;;1.70;1.00;;;;;;5071532;28;20291;-63
2021/10/24 02:04:32;;;;;;;58.47;3.10;;;1.70;1.00;;;;;;5071470;28;20201;-63
2021/10/24 02:06:58;;;;;;;58.58;3.25;;;1.70;1.00;;;;;;5071054;28;20554;-63
2021/10/24 02:09:26;;;;;;;58.65;3.40;;;1.60;1.00;;;;;;5071221;28;20221;-62
2021/10/24 02:11:52;;;;;;;58.20;3.30;;;1.60;1.00;;;;;;5071195;28;20691;-64
2021/10/24 02:14:21;;;;;;;58.40;2.92;;;1.60;1.00;;;;;;5074294;28;20219;-62
2021/10/24 02:16:47;;;;;;;58.67;3.20;;;1.70;1.00;;;;;;5074534;28;20700;-64
2021/10/24 02:19:14;;;;;;;58.47;3.00;;;1.70;1.00;;;;;;5074972;28;20231;-64
2021/10/24 02:21:41;;;;;;;58.50;3.05;;;1.70;1.00;;;;;;5075005;28;20295;-64
2021/10/24 02:24:08;;;;;;;58.75;3.50;;;1.80;1.00;;;;;;5075134;28;20204;-65
2021/10/24 02:26:35;;;;;;;58.80;3.40;;;1.80;1.00;;;;;;5074588;28;20295;-64
2021/10/24 02:29:01;;;;;;;59.45;3.75;;;1.80;1.00;;;;;;5074773;28;20231;-63
2021/10/24 02:31:30;;;;;;;58.55;3.30;;;1.70;1.00;;;;;;5074788;28;20233;-65
2021/10/24 02:33:57;;;;;;;58.70;2.90;;;1.70;1.00;;;;;;5074797;28;20211;-64
2021/10/24 02:36:24;;;;;;;58.22;3.17;;;1.70;1.00;;;;;;5074706;28;20225;-64
2021/10/24 02:38:51;;;;;;;58.60;3.40;;;1.70;1.00;;;;;;5074417;28;20215;-64
2021/10/24 02:41:17;;;;;;;58.58;3.15;;;1.70;1.00;;;;;;5074741;28;20201;-65
2021/10/24 02:43:44;;;;;;;58.10;3.00;;;1.70;1.00;;;;;;5074661;28;20291;-64
2021/10/24 02:46:11;;;;;;;58.75;3.22;;;1.70;1.00;;;;;;5074138;28;20210;-66
2021/10/24 02:48:39;;;;;;;58.65;3.30;;;1.70;1.00;;;;;;5074418;28;20209;-65
2021/10/24 02:51:06;;;;;;;58.58;3.20;;;1.60;1.00;;;;;;5074282;28;20300;-65
2021/10/24 02:53:33;;;;;;;58.45;3.40;;;1.60;1.00;;;;;;5074326;28;20219;-63
2021/10/24 02:56:00;;;;;;;58.58;3.20;;;1.60;1.00;;;;;;5074326;28;20244;-65
2021/10/24 02:58:27;;;;;;;58.80;3.20;;;1.60;1.00;;;;;;5074231;28;20304;-63
2021/10/24 03:00:54;;;;;;;58.78;3.20;;;1.50;1.00;;;;;;5074118;28;20221;-65
2021/10/24 03:03:20;;;;;;;58.45;3.00;;;1.50;1.00;;;;;;5074200;28;20586;-64
2021/10/24 03:05:48;;;;;;;60.50;5.38;;;1.50;1.00;;;;;;5073765;28;20211;-64
2021/10/24 03:08:16;;;;;;;58.95;3.58;;;1.40;1.00;;;;;;5074292;28;20295;-63
2021/10/24 03:10:43;;;;;;;58.58;3.10;;;1.40;1.00;;;;;;5074143;28;20712;-65
2021/10/24 03:13:09;;;;;;;58.70;3.10;;;1.40;1.00;;;;;;5073865;28;20248;-64
2021/10/24 03:15:36;;;;;;;58.47;3.00;;;1.40;1.00;;;;;;5073543;28;20316;-65
2021/10/24 03:18:03;;;;;;;58.53;3.00;;;1.40;1.00;;;;;;5073975;28;20240;-64
2021/10/24 03:20:30;;;;;;;58.67;3.10;;;1.40;1.00;;;;;;5073667;28;20232;-65
2021/10/24 03:22:58;;;;;;;58.65;2.95;;;1.40;1.00;;;;;;5073992;28;20236;-64
2021/10/24 03:25:25;;;;;;;58.80;3.30;;;1.40;1.00;;;;;;5072883;28;20244;-64
2021/10/24 03:27:52;;;;;;;58.92;3.47;;;1.40;1.00;;;;;;5073745;28;20208;-64
2021/10/24 03:30:19;;;;;;;58.13;3.13;;;1.40;1.00;;;;;;5073600;28;20315;-64
2021/10/24 03:32:46;;;;;;;58.28;2.92;;;1.40;1.00;;;;;;5073647;28;20209;-64
2021/10/24 03:35:14;;;;;;;58.10;3.30;;;1.30;1.00;;;;;;5073289;28;20221;-65
2021/10/24 03:37:41;;;;;;;58.55;3.25;;;1.30;1.00;;;;;;5073468;28;20300;-64
2021/10/24 03:40:10;;;;;;;58.58;2.92;;;1.30;1.00;;;;;;5073564;28;20325;-64
2021/10/24 03:42:37;;;;;;;58.47;3.20;;;1.30;1.00;;;;;;5073483;28;20326;-65
2021/10/24 03:45:04;;;;;;;58.47;3.35;;;1.20;1.00;;;;;;5073243;28;20204;-63
2021/10/24 03:47:31;;;;;;;58.42;3.58;;;1.20;1.00;;;;;;5072937;28;20674;-64
2021/10/24 03:49:58;;;;;;;58.47;3.40;;;1.10;1.00;;;;;;5073420;28;20231;-63
2021/10/24 03:52:25;;;;;;;58.55;3.70;;;1.00;1.00;;;;;;5073392;28;20211;-64
2021/10/24 03:54:52;;;;;;;58.35;3.50;;;1.00;1.00;;;;;;5073188;28;20213;-64
2021/10/24 03:57:20;;;;;;;58.70;3.53;;;1.00;1.00;;;;;;5073139;28;20689;-63
2021/10/24 03:59:47;;;;;;;58.58;3.30;;;0.90;1.00;;;;;;5072971;28;20324;-65
2021/10/24 04:02:14;;;;;;;58.78;3.30;;;0.90;1.00;;;;;;5072956;28;20296;-63
2021/10/24 04:04:41;;;;;;;58.25;3.40;;;0.90;1.00;;;;;;5073102;28;20309;-63
2021/10/24 04:07:08;;;;;;;58.50;3.42;;;0.90;1.00;;;;;;5072777;28;20232;-64
2021/10/24 04:09:35;;;;;;;58.53;3.10;;;0.90;1.00;;;;;;5072924;28;20312;-63
2021/10/24 04:12:02;;;;;;;58.40;3.30;;;0.90;1.00;;;;;;5072912;28;20291;-64
2021/10/24 04:14:31;;;;;;;58.90;3.40;;;0.90;1.00;;;;;;5072563;28;20217;-63
2021/10/24 04:16:57;;;;;;;58.90;3.38;;;0.90;1.00;;;;;;5072551;28;20500;-64
2021/10/24 04:19:25;;;;;;;60.22;3.60;;;0.90;1.00;;;;;;5072765;28;20221;-63
2021/10/24 04:21:52;;;;;;;58.80;3.35;;;0.90;1.00;;;;;;5072597;28;20307;-64
2021/10/24 04:24:18;;;;;;;58.67;3.30;;;0.90;1.00;;;;;;5072629;28;20748;-63
2021/10/24 04:26:45;;;;;;;58.67;3.28;;;0.80;1.00;;;;;;5072280;28;20207;-63
2021/10/24 04:29:12;;;;;;;59.10;4.28;;;0.80;1.00;;;;;;5072251;28;20252;-64
2021/10/24 04:31:40;;;;;;;59.00;3.50;;;0.80;1.00;;;;;;5072640;28;20292;-64
2021/10/24 04:34:07;;;;;;;58.70;3.28;;;0.80;1.00;;;;;;5072756;28;20580;-63
2021/10/24 04:36:34;;;;;;;58.53;3.20;;;0.80;1.00;;;;;;5071154;28;20315;-63
2021/10/24 04:39:01;;;;;;;58.22;3.63;;;0.70;1.00;;;;;;5072307;28;20256;-63
2021/10/24 04:41:28;;;;;;;58.65;3.20;;;0.70;1.00;;;;;;5072294;28;20294;-63
2021/10/24 04:43:55;;;;;;;58.67;3.00;;;0.70;1.00;;;;;;5072183;28;20504;-63
2021/10/24 04:46:22;;;;;;;58.58;3.10;;;0.60;1.00;;;;;;5071804;28;20288;-63
2021/10/24 04:48:51;;;;;;;58.88;3.88;;;0.60;1.00;;;;;;5072232;28;20205;-64
2021/10/24 04:51:17;;;;;;;58.97;3.50;;;0.60;1.00;;;;;;5072050;28;20303;-63
2021/10/24 04:53:45;;;;;;;58.38;3.00;;;0.70;1.00;;;;;;5072187;28;20301;-63
2021/10/24 04:56:12;;;;;;;58.17;3.20;;;0.70;1.00;;;;;;5071579;28;20594;-63
2021/10/24 04:58:38;;;;;;;58.30;3.00;;;0.60;1.00;;;;;;5071981;28;20502;-63
2021/10/24 05:01:05;;;;;;;58.58;3.40;;;0.60;1.00;;;;;;5072173;28;20205;-64
2021/10/24 05:03:32;;;;;;;58.75;3.50;;;0.60;1.00;;;;;;5071930;28;20215;-64
2021/10/24 05:06:01;;;;;;;58.30;3.03;;;0.60;1.00;;;;;;5071694;28;20263;-65
2021/10/24 05:08:28;;;;;;;58.28;2.83;;;0.60;1.00;;;;;;5072394;28;20205;-63
2021/10/24 05:10:55;;;;;;;58.22;3.00;;;0.60;1.00;;;;;;5071720;28;20334;-63
2021/10/24 05:13:21;;;;;;;58.03;3.00;;;0.50;1.00;;;;;;5071662;28;20760;-64
2021/10/24 05:15:48;;;;;;;58.28;3.45;;;0.50;1.00;;;;;;5071378;28;20319;-63
2021/10/24 05:18:15;;;;;;;58.20;3.00;;;0.50;1.00;;;;;;5072011;28;20247;-63
2021/10/24 05:20:42;;;;;;;58.13;3.00;;;0.50;1.00;;;;;;5071704;28;20224;-63
2021/10/24 05:23:10;;;;;;;58.80;3.78;;;0.50;1.00;;;;;;5071810;28;20296;-63
2021/10/24 05:25:37;;;;;;;58.45;3.72;;;0.50;1.00;;;;;;5071257;28;20529;-63
2021/10/24 05:28:04;;;;;;;58.38;3.08;;;0.50;1.00;;;;;;5071873;28;20207;-64
2021/10/24 05:30:31;;;;;;;57.92;3.38;;;0.50;1.00;;;;;;5071831;28;20220;-64
2021/10/24 05:32:58;;;;;;;58.28;3.20;;;0.50;1.00;;;;;;5071745;28;20240;-64
2021/10/24 05:35:25;;;;;;;58.38;3.10;;;0.50;1.00;;;;;;5071410;28;20726;-64
2021/10/24 05:37:53;;;;;;;58.38;3.40;;;0.40;1.00;;;;;;5071533;28;20562;-64
2021/10/24 05:40:21;;;;;;;58.47;3.60;;;0.40;1.00;;;;;;5071729;28;20704;-65
2021/10/24 05:42:48;;;;;;;58.58;3.05;;;0.40;1.00;;;;;;5071754;28;20609;-65
2021/10/24 05:45:15;;;;;;;58.90;3.50;;;0.40;1.00;;;;;;5071410;28;20247;-64
2021/10/24 05:47:42;;;;;;;58.45;3.20;;;0.40;1.00;;;;;;5073678;28;20582;-65
2021/10/24 05:50:09;;;;;;;58.47;3.10;;;0.40;1.00;;;;;;5075516;28;20279;-64
2021/10/24 05:52:36;;;;;;;58.47;3.10;;;0.40;1.00;;;;;;5075435;28;20231;-66
2021/10/24 05:55:04;;;;;;;58.38;3.08;;;0.40;1.00;;;;;;5075344;28;20211;-65
2021/10/24 05:57:32;;;;;;;58.80;3.20;;;0.40;1.00;;;;;;5075181;28;20334;-65
2021/10/24 05:59:59;;;;;;;59.95;3.53;;;0.50;1.00;;;;;;5075378;28;20260;-65
2021/10/24 06:02:25;;;;;;;59.05;3.70;;;0.50;1.00;;;;;;5075318;28;20219;-63
2021/10/24 06:04:57;;;;;;;58.38;3.10;;;0.50;1.00;;;;;;5075271;28;20542;-64
2021/10/24 06:07:23;;;;;;;58.45;3.40;;;0.50;1.00;;;;;;5075019;28;20216;-64
2021/10/24 06:09:53;;;;;;;58.80;3.40;;;0.40;1.00;;;;;;5075407;28;20307;-64
2021/10/24 06:12:40;;;;;;;58.35;3.13;;;0.40;1.00;;;;;;5075321;28;20228;-61
2021/10/24 06:15:11;;;;;;;58.40;3.50;;;0.40;1.00;;;;;;5074877;28;20570;-65
2021/10/24 06:17:38;;;;;;;58.38;3.30;;;0.50;1.00;;;;;;5074457;28;20751;-64
2021/10/24 06:20:06;;;;;;;58.83;3.25;;;0.50;1.00;;;;;;5074905;28;20221;-64
2021/10/24 06:22:32;;;;;;;58.15;3.20;;;0.50;1.00;;;;;;5074976;28;20208;-64
2021/10/24 06:24:59;;;;;;;58.47;3.30;;;0.50;1.00;;;;;;5075108;28;20295;-64
2021/10/24 06:27:26;;;;;;;58.25;3.00;;;0.50;1.00;;;;;;5074432;28;20297;-65
2021/10/24 06:29:53;;;;;;;58.88;3.90;;;0.60;1.00;;;;;;5074542;28;20221;-65
2021/10/24 06:32:22;;;;;;;58.42;3.40;;;0.60;1.00;;;;;;5074929;28;20573;-64
2021/10/24 06:34:49;;;;;;;57.80;3.00;;;0.60;1.00;;;;;;5074800;28;20646;-65
2021/10/24 06:37:18;;;;;;;58.55;3.40;;;0.60;1.00;;;;;;5074450;28;20682;-64
2021/10/24 06:39:46;;;;;;;58.00;2.85;;;0.70;1.00;;;;;;5074431;28;20740;-65
2021/10/24 06:42:13;;;;;;;58.80;3.40;;;0.70;1.00;;;;;;5074464;28;20209;-64
2021/10/24 06:44:40;;;;;;;58.30;3.40;;;0.80;1.00;;;;;;5074334;28;20236;-65
2021/10/24 06:47:07;;;;;;;58.80;3.30;;;0.80;1.00;;;;;;5074432;28;20232;-65
2021/10/24 06:49:35;;;;;;;57.97;3.10;;;0.90;1.00;;;;;;5074578;28;20324;-64
2021/10/24 06:52:05;;;;;;;58.60;4.00;;;0.90;1.00;;;;;;5074458;28;20201;-63
2021/10/24 06:54:32;;;;;;;58.80;3.40;;;1.00;1.00;;;;;;5074660;28;20204;-64
2021/10/24 06:56:59;;;;;;;58.47;3.17;;;1.00;1.00;;;;;;5073815;28;20596;-64
2021/10/24 06:59:26;;;;;;;58.42;3.50;;;1.10;1.00;;;;;;5073577;28;20319;-61
2021/10/24 07:01:53;;;;;;;58.85;3.20;;;1.20;1.00;;;;;;5074608;28;20296;-65
2021/10/24 07:04:20;;;;;;;58.55;3.30;;;1.20;1.00;;;;;;5074314;28;20211;-64
2021/10/24 07:06:48;;;;;;;58.58;3.40;;;1.30;1.00;;;;;;5073958;28;20228;-63
2021/10/24 07:09:15;;;;;;;58.88;3.20;;;1.40;1.00;;;;;;5074078;28;20227;-64
2021/10/24 07:11:42;;;;;;;58.25;3.30;;;1.40;1.00;;;;;;5074008;28;20292;-63
2021/10/24 07:14:09;;;;;;;58.47;3.10;;;1.50;1.00;;;;;;5073976;28;20643;-64
2021/10/24 07:16:36;;;;;;;58.28;3.10;;;1.60;1.00;;;;;;5073547;28;20731;-63
2021/10/24 07:19:02;;;;;;;58.88;3.50;;;1.60;1.00;;;;;;5074145;28;20561;-63
2021/10/24 07:21:29;;;;;;;58.80;3.20;;;1.70;1.00;;;;;;5073788;28;20245;-63
2021/10/24 07:23:57;;;;;;;58.30;3.10;;;1.80;1.00;;;;;;5073666;28;20240;-64
2021/10/24 07:26:24;;;;;;;58.38;3.20;;;1.90;1.00;;;;;;5073414;28;20205;-63
2021/10/24 07:28:51;;;;;;;58.28;3.03;;;1.90;1.00;;;;;;5073917;28;20204;-64
2021/10/24 07:31:18;;;;;;;58.58;3.22;;;2.00;1.00;;;;;;5073750;28;20787;-63
2021/10/24 07:33:45;;;;;;;58.17;3.15;;;2.10;1.00;;;;;;5073830;28;20211;-63
2021/10/24 07:36:11;;;;;;;58.47;3.15;;;2.20;1.00;;;;;;5073223;28;20697;-63
2021/10/24 07:38:38;;;;;;;60.35;3.70;;;2.30;1.00;;;;;;5073419;28;20209;-64
2021/10/24 07:41:07;;;;;;;58.03;3.20;;;2.30;1.00;;;;;;5074016;28;20338;-65
2021/10/24 07:43:34;;;;;;;58.38;3.00;;;2.40;1.00;;;;;;5073453;28;20205;-64
2021/10/24 07:46:01;;;;;;;58.42;2.90;;;2.50;1.00;;;;;;5073240;28;20303;-63
2021/10/24 07:48:28;;;;;;;58.10;2.85;;;2.60;1.00;;;;;;5073485;28;20200;-64
2021/10/24 07:50:55;;;;;;;58.33;3.10;;;2.70;1.00;;;;;;5073345;28;20600;-63
2021/10/24 07:53:25;;;;;;;58.70;3.30;;;2.70;1.00;;;;;;5073225;28;20301;-65
2021/10/24 07:55:52;;;;;;;58.55;3.40;;;2.80;1.00;;;;;;5073275;28;20627;-63
2021/10/24 07:58:20;;;;;;;59.05;3.50;;;2.90;1.00;;;;;;5073484;28;20205;-64
2021/10/24 08:00:48;;;;;;;58.58;3.00;;;3.00;1.00;;;;;;5073269;28;20322;-64
2021/10/24 08:03:15;;;;;;;58.45;3.40;;;3.10;1.00;;;;;;5073185;28;20207;-64
2021/10/24 08:05:42;;;;;;;58.60;3.00;;;3.20;1.00;;;;;;5072681;28;20201;-66
2021/10/24 08:08:09;;;;;;;58.80;3.40;;;3.30;1.00;;;;;;5072970;28;20205;-63
2021/10/24 08:10:36;;;;;;;58.97;4.05;;;3.40;1.00;;;;;;5073013;28;20312;-63
2021/10/24 08:13:03;;;;;;;58.38;2.92;;;3.50;1.00;;;;;;5072941;28;20585;-64
2021/10/24 08:15:32;;;;;;;58.70;3.20;;;3.60;1.00;;;;;;5072530;28;20243;-63
2021/10/24 08:17:59;;;;;;;58.35;2.88;;;3.80;1.00;;;;;;5072777;28;20315;-64
2021/10/24 08:20:26;;;;;;;58.47;3.10;;;3.90;1.00;;;;;;5072572;28;20228;-63
2021/10/24 08:22:53;;;;;;;58.35;3.13;;;4.00;1.00;;;;;;5072849;28;20204;-64
2021/10/24 08:25:20;;;;;;;58.38;2.85;;;4.10;1.00;;;;;;5072684;28;20208;-64
2021/10/24 08:27:47;;;;;;;58.58;2.97;;;4.20;1.00;;;;;;5072420;28;20207;-64
2021/10/24 08:30:14;;;;;;;58.28;2.92;;;4.30;1.00;;;;;;5072979;28;20320;-64
2021/10/24 08:32:42;;;;;;;58.55;2.90;;;4.50;1.00;;;;;;5072502;28;20297;-64
2021/10/24 08:35:10;;;;;;;58.70;2.90;;;4.60;1.00;;;;;;5072280;28;20209;-64
2021/10/24 08:37:37;;;;;;;58.50;3.03;;;4.70;1.00;;;;;;5072401;28;20327;-63
2021/10/24 08:40:05;;;;;;;58.60;3.10;;;4.80;1.00;;;;;;5072325;28;20263;-64
2021/10/24 08:42:37;;;;;;;58.58;3.20;;;5.00;1.00;;;;;;5072428;28;20201;-64
2021/10/24 08:45:06;;;;;;;58.55;3.20;;;5.20;1.00;;;;;;5072483;28;20209;-65
2021/10/24 08:47:33;;;;;;;58.50;2.78;;;5.30;1.00;;;;;;5072231;28;20208;-65
2021/10/24 08:50:01;;;;;;;58.53;2.70;;;5.50;1.00;;;;;;5072597;28;20286;-65
2021/10/24 08:52:28;;;;;;;59.00;3.10;;;5.60;1.00;;;;;;5072146;28;20205;-64
2021/10/24 08:54:55;;;;;;;58.47;2.70;;;5.70;1.00;;;;;;5072212;28;20292;-64
2021/10/24 08:57:26;;;;;;;58.38;2.80;;;5.90;1.00;;;;;;5071780;28;20217;-65
2021/10/24 08:59:54;;;;;;;58.50;2.97;;;6.00;1.00;;;;;;5072454;28;20328;-64
2021/10/24 09:02:21;;;;;;;58.38;2.88;;;6.20;1.00;;;;;;5072088;28;20212;-65
2021/10/24 09:04:53;;;;;;;58.38;2.85;;;6.40;1.00;;;;;;5072188;28;20205;-65
2021/10/24 09:07:22;;;;;;;58.67;3.35;;;6.60;1.00;;;;;;5071799;28;20283;-65
2021/10/24 09:09:49;;;;;;;58.58;2.80;;;6.80;1.00;;;;;;5071899;28;20273;-65
2021/10/24 09:12:17;;;;;;;58.45;3.20;;;7.00;1.00;;;;;;5071999;28;20205;-65
2021/10/24 09:14:47;;;;;;;58.47;2.85;;;7.30;1.00;;;;;;5071667;28;20304;-64
2021/10/24 09:17:17;;;;;;;58.47;2.88;;;7.50;1.00;;;;;;5071761;28;20674;-65
2021/10/24 09:19:45;;;;;;;58.67;3.60;;;7.80;1.00;;;;;;5071967;28;20284;-65
2021/10/24 09:22:22;;;;;;;58.58;2.90;;;8.10;1.00;;;;;;5071381;28;20296;-64
2021/10/24 09:25:10;;;;;;;58.58;3.10;;;8.40;1.00;;;;;;5071829;28;20292;-64
2021/10/24 09:27:43;;;;;;;58.33;2.90;;;8.80;1.00;;;;;;5071765;28;20259;-63
2021/10/24 09:30:12;;;;;;;58.50;3.00;;;9.20;1.00;;;;;;5071733;28;20469;-65
2021/10/24 09:32:52;;;;;;;58.67;2.97;;;10.40;1.00;;;;;;5071935;28;20453;-65
2021/10/24 09:35:22;;;;;;;58.47;3.00;;;12.00;1.00;;;;;;5071590;28;20457;-63
2021/10/24 09:37:51;;;;;;;58.37;2.93;;;13.70;1.00;;;;;;5071747;28;20522;-64
2021/10/24 09:40:19;;;;;;;58.17;2.80;;;15.20;1.00;;;;;;5071568;28;21031;-64
2021/10/24 09:42:46;;;;;;;58.33;2.77;;;16.50;1.00;;;;;;5071689;28;20445;-63
2021/10/24 09:45:14;;;;;;;58.17;3.07;;;17.60;1.00;;;;;;5071608;28;20542;-63
2021/10/24 09:47:43;;;;;;;58.10;2.40;;;18.50;1.00;;;;;;5071343;28;20475;-63
2021/10/24 09:50:28;;;;;;;58.20;2.40;;;19.50;1.00;;;;;;5071832;28;20471;-64
2021/10/24 09:53:11;;;;;;;58.10;2.43;;;20.10;1.00;;;;;;5071616;28;20456;-65
2021/10/24 09:55:37;;;;;;;58.30;2.80;;;21.10;1.00;;;;;;5071388;28;20439;-63
2021/10/24 09:58:04;;;;;;;57.87;2.50;;;21.60;1.00;;;;;;5071523;28;20479;-63
2021/10/24 10:00:32;;;;;;;57.67;2.10;;;22.00;1.00;;;;;;5071239;28;20474;-64
2021/10/24 10:03:00;;;;;;;59.27;2.40;;;22.40;1.00;;;;;;5071695;28;20451;-63
2021/10/24 10:05:28;;;;;;;57.70;2.10;;;22.70;1.00;;;;;;5071222;28;20815;-63
2021/10/24 10:07:57;;;;;;;57.57;2.23;;;23.20;1.00;;;;;;5071850;28;20440;-63
2021/10/24 10:10:25;;;;;;;57.97;2.20;;;23.80;1.00;;;;;;5071367;28;20502;-65
2021/10/24 10:12:55;;;;;;;58.00;2.70;;;24.70;99.90;;;;;;5071076;28;20458;-63
2021/10/24 10:15:22;;;;;;;57.37;1.83;;;25.10;99.90;;;;;;5071373;28;20533;-66
2021/10/24 10:17:57;;;;;;;57.50;1.90;;;24.90;99.90;;;;;;5071097;28;20574;-63
2021/10/24 10:20:27;;;;;;;58.17;2.83;;;25.00;99.90;;;;;;5071192;28;20570;-65
2021/10/24 10:23:03;;;;;;;57.67;2.07;;;25.40;99.90;;;;;;5071205;28;20458;-64
2021/10/24 10:25:30;;;;;;;57.57;2.10;;;25.40;99.90;;;;;;5070810;28;20453;-64
2021/10/24 10:27:58;;;;;;;57.43;2.00;;;25.50;99.90;;;;;;5071174;28;20999;-63
2021/10/24 10:30:34;;;;;;;57.50;1.90;;;25.70;99.90;;;;;;5071507;28;20809;-64
2021/10/24 10:33:02;;;;;;;57.43;2.03;;;26.30;99.90;;;;;;5071109;28;20530;-64
2021/10/24 10:35:29;;;;;;;57.70;2.10;;;26.90;99.90;;;;;;5073999;28;20517;-64
2021/10/24 10:37:57;;;;;;;57.27;1.97;;;27.40;99.90;;;;;;5074557;28;20835;-66
2021/10/24 10:40:28;;;;;;;57.27;1.80;;;27.70;99.90;;;;;;5074824;28;20464;-63
2021/10/24 10:43:02;;;;;;;57.40;2.30;;;28.10;99.90;;;;;;5074816;28;20447;-63
2021/10/24 10:45:45;;;;;;;57.27;2.03;;;28.20;99.90;;;;;;5074428;28;20470;-65
2021/10/24 10:48:36;;;;;;;57.27;2.00;;;28.40;99.90;;;;;;5074466;28;20450;-65
2021/10/24 10:51:16;;;;;;;57.47;2.53;;;29.20;99.90;;;;;;5074486;28;20446;-66
2021/10/24 10:53:55;;;;;;;57.10;2.00;;;29.80;99.90;;;;;;5074516;28;20453;-65
2021/10/24 10:56:29;;;;;;;57.10;2.30;;;30.30;99.90;;;;;;5074144;28;20459;-65
2021/10/24 10:58:57;;;;;;;57.07;2.00;;;30.50;99.90;;;;;;5074215;28;20488;-65
2021/10/24 11:01:31;;;;;;;57.13;2.10;;;30.30;99.90;;;;;;5074580;28;20532;-62
2021/10/24 11:04:00;;;;;;;57.30;1.87;;;30.10;99.90;;;;;;5074229;28;20450;-62
2021/10/24 11:06:50;;;;;;;57.50;2.30;;;29.90;99.90;;;;;;5073917;28;20544;-62
2021/10/24 11:09:43;;;;;;;57.70;2.47;;;30.30;99.90;;;;;;5074024;28;21030;-64
2021/10/24 11:12:11;;;;;;;56.93;1.93;;;31.20;99.90;;;;;;5074298;28;20457;-64
2021/10/24 11:14:45;;;;;;;57.23;1.90;;;32.20;99.90;;;;;;5074428;28;20931;-62
2021/10/24 11:17:34;;;;;;;57.37;2.27;;;32.70;99.90;;;;;;5073629;28;20452;-64
2021/10/24 11:20:21;;;;;;;57.27;2.00;;;32.40;99.90;;;;;;5073948;28;20474;-64
2021/10/24 11:23:00;;;;;;;57.23;1.80;;;32.40;99.90;;;;;;5074417;28;20458;-65
2021/10/24 11:25:36;;;;;;;57.07;1.70;;;32.80;99.90;;;;;;5073634;28;20447;-64
2021/10/24 11:28:14;;;;;;;59.00;2.13;;;33.20;99.90;;;;;;5073081;28;20442;-70
2021/10/24 11:30:43;;;;;;;57.40;1.90;;;34.00;99.90;;;;;;5072659;28;20502;-65
2021/10/24 11:33:11;;;;;;;57.60;2.27;;;34.20;99.90;;;;;;5073043;28;20455;-64
2021/10/24 11:35:41;;;;;;;56.80;1.87;;;34.90;99.90;;;;;;5072863;28;20443;-67
2021/10/24 11:38:14;;;;;;;56.90;1.80;;;35.40;99.90;;;;;;5073107;28;20462;-63
2021/10/24 11:40:43;;;;;;;56.97;2.03;;;35.40;99.90;;;;;;5073353;28;20479;-64
2021/10/24 11:43:17;;;;;;;57.00;1.80;;;35.40;99.90;;;;;;5072786;28;21050;-67
2021/10/24 11:45:46;;;;;;;57.90;2.40;;;35.30;99.90;;;;;;5072533;28;20923;-66
2021/10/24 11:48:17;;;;;;;57.03;1.77;;;35.40;99.90;;;;;;5073002;28;20477;-66
2021/10/24 11:50:53;;;;;;;57.17;2.00;;;35.70;99.90;;;;;;5073352;28;20471;-66
2021/10/24 11:53:30;;;;;;;57.20;2.00;;;36.30;99.90;;;;;;5073435;28;20445;-66
2021/10/24 11:55:58;;;;;;;57.27;2.40;;;36.40;99.90;;;;;;5072776;28;20927;-65
2021/10/24 12:01:12;;;;;;;58.07;1.83;;;36.70;99.90;;;;;;5070227;28;20471;-65
2021/10/24 12:03:41;;;;;;;56.77;1.90;;;36.50;99.90;;;;;;5073131;28;20702;-67
2021/10/24 12:06:09;;;;;;;57.30;2.13;;;36.70;99.90;;;;;;5072759;28;20881;-64
2021/10/24 12:08:46;;;;;;;57.30;2.20;;;36.90;99.90;;;;;;5072784;28;20479;-65
2021/10/24 12:11:21;;;;;;;56.97;2.20;;;36.60;99.90;;;;;;5068994;28;20451;-64
2021/10/24 12:13:50;;;;;;;57.10;2.03;;;37.10;99.90;;;;;;5072369;28;20458;-65
2021/10/24 12:16:26;;;;;;;56.93;2.10;;;36.90;99.90;;;;;;5072762;28;20458;-64
2021/10/24 12:19:11;;;;;;;57.47;2.20;;;37.20;99.90;;;;;;5072482;28;20969;-67
2021/10/24 12:21:38;;;;;;;57.07;1.93;;;37.40;99.90;;;;;;5072780;28;20463;-66
2021/10/24 12:24:16;;;;;;;56.77;2.00;;;38.20;99.90;;;;;;5072432;28;20538;-68
2021/10/24 12:26:43;;;;;;;56.83;2.00;;;38.60;99.90;;;;;;5072404;28;20453;-67
2021/10/24 12:29:17;;;;;;;56.77;1.90;;;38.90;99.90;;;;;;5072472;28;20523;-64
2021/10/24 12:31:45;;;;;;;56.80;1.90;;;39.30;99.90;;;;;;5072103;28;20450;-66
2021/10/24 12:34:13;;;;;;;56.87;2.00;;;40.00;99.90;;;;;;5072239;28;20447;-67
2021/10/24 12:36:41;;;;;;;56.77;1.80;;;40.40;99.90;;;;;;5071875;28;20482;-64
2021/10/24 12:39:10;;;;;;;57.30;2.53;;;40.70;99.90;;;;;;5072387;28;20888;-66
2021/10/24 12:41:38;;;;;;;57.30;2.07;;;40.90;99.90;;;;;;5072493;28;20449;-64
2021/10/24 12:44:06;;;;;;;56.53;1.80;;;41.20;99.90;;;;;;5068757;28;20448;-65
2021/10/24 12:46:37;;;;;;;57.10;2.37;;;41.30;99.90;;;;;;5071884;28;20451;-65
2021/10/24 12:49:10;;;;;;;56.47;1.87;;;41.00;99.90;;;;;;5071860;28;20574;-65
2021/10/24 12:51:38;;;;;;;56.77;1.90;;;41.50;99.90;;;;;;5071898;28;20474;-65
2021/10/24 12:54:06;;;;;;;56.97;1.90;;;41.50;99.90;;;;;;5072076;28;20455;-65
2021/10/24 12:56:34;;;;;;;56.87;1.90;;;41.50;99.90;;;;;;5070960;28;20447;-65
2021/10/24 12:59:02;;;;;;;57.20;2.43;;;41.50;99.90;;;;;;5072361;28;20521;-65
2021/10/24 13:01:30;;;;;;;56.93;2.07;;;41.50;99.90;;;;;;5071913;28;20531;-65
2021/10/24 13:04:00;;;;;;;56.83;2.00;;;42.20;99.90;;;;;;5071804;28;20439;-65